Monterville, West Virginia
Current Conditions -  °F | °C
As of 6:51 PM on Saturday 25 Oct 2014 (Local Time) from KEKN Reporting Station
Few Clouds Few Clouds  
Wind Chill: 59°   Ceiling: Unl
Heat Index: 59°   Visibility: 10mi
Dew Point: 47°   Wind: 5mph
Humidity: 64%   Direction: NA
Pressure: 29.88"   Gusts: NA
Location:  38.56°N, 80.11°W
Report Text: KEKN 252251Z AUTO VRB04KT 10SM FEW032 15/08 A2988 RMK AO2 SLP128 T01500083 TSNO
Loading
Personal Weather Stations






























Interactive Weather Map
Tropical Storm Tracking
New forecast layout! Learn more

10-Day Weather Forecast

Advertisements
Track Severe Weather on mobile